SBEGSBBV

Guest
Details From SBEG - Eduardo Gomes
To SBBV - Boa Vista Intl
Flight Number -
Tags Decoded
Created
Modified
Stats Distance 355 nm / 658 km
Max Altitude 0 ft / 0 m
Waypoints 2
Social Downloads 1
Likes 0
Share VATSIM

Download

Looking for another format? Having issues loading an existing format? Contact us
Advertisement - Login to hide

Notes

Decoded

Route

SBEG SBBV

ID Type Via Altitude Latitude Longitude Leg Dist Tot Dist Heading (true) Name
O SBEG APT - 0 ft / 0 m -3.03858˚ -60.06189˚ - 0 nm - -
O SBBV APT - 0 ft / 0 m 2.84077˚ -60.70090˚ 355 nm 355 nm 354° / 354° -

Altitude Profile

Advertisement - Login to hide

Weather


0- 5 10 15 20 25 30 35+ Temperature / ° C

Clouds and Precipitation
Forecast for 2018-05-21 12:00 UTC. Updated 30 minutes ago

Ground ~20,000 ft ~40,000 ft Winds

SBEG

Details ICAO SBEG (MAO)
Name Eduardo Gomes
Region Brazil
Timezone America/Manaus (UTC-4.0)
Stats Elevation 264 ft / 80 m (AMSL)
Location -3.038611° -60.049723°
Runways 1
Magnetic Variation 15.812° W

METAR

SBEG 210900Z 33002KT 9999 2000N BCFG SCT002 22/22 Q1011

Decode

TAF

TAF SBEG 210400Z 2106/2206 06005KT 9999 FEW010 TN24/2107Z TX33/2117Z PROB30 2108/2112 00000KT 3000 BR SCT006 BECMG 2113/2115 08005KT SCT020 BECMG 2116/2118 BKN020 FEW025TCU PROB30 2118/2121 5000 TSRA BKN015 FEW025CB RMK PEN

Decode

Departure Runways

ID Width Length Bearing (true) Bearing (mag) Surface Threshold Offset Overrun Length
10 148 ft / 45 m 8,867 ft / 2,703 m 90.13° 105.94° Asphalt 0 ft / 0 m 215 ft / 66 m
28 148 ft / 45 m 8,867 ft / 2,703 m 270.13° 285.94° Asphalt 0 ft / 0 m 250 ft / 76 m

SBBV

Details ICAO SBBV (BVB)
Name Boa Vista Intl
Region Brazil
Timezone America/Boa_Vista (UTC-4.0)
Stats Elevation 275 ft / 84 m (AMSL)
Location 2.846311° -60.690068°
Runways 1
Magnetic Variation 15.458° W

METAR

SBBV 210900Z 36002KT 9999 FEW008 BKN015 FEW020TCU BKN080 25/24 Q1012

Decode

TAF

TAF SBBV 210400Z 2106/2206 12005KT 9999 BKN015 FEW020TCU TN24/2107Z TX32/2118Z BECMG 2108/2110 SCT015 BECMG 2113/2115 09010KT BKN020 BECMG 2116/2118 15005KT BKN025 FEW030TCU PROB30 2123/2201 10005KT TS FEW040 FEW045CB RMK PEN

Decode

Destination Runways

ID Width Length Bearing (true) Bearing (mag) Surface Threshold Offset Overrun Length
08 148 ft / 45 m 8,871 ft / 2,704 m 62.88° 78.34° Asphalt 300 ft / 91 m 0 ft / 0 m
26 148 ft / 45 m 8,871 ft / 2,704 m 242.88° 258.34° Asphalt 300 ft / 91 m 0 ft / 0 m

Approach Navaids

Runway Type Ident Frequency Range Bearing (true) Bearing (mag) Slope Elevation
08 Localiser IBV 109.30 MHz 18 nm / 33 km 62.88° 78.33° - 274 ft / 84 m (AMSL)
08 Glidescope IBV 109.30 MHz 10 nm / 19 km 62.88° 78.33° 3.00° 274 ft / 84 m (AMSL)
08 DME IBV 109.30 MHz 18 nm / 33 km - - - 274 ft / 84 m (AMSL)

Popular Alternatives